Time;durP1;ratioP1;P1;durP2;ratioP2;P2;SDS_P1;SDS_P2;PMS_P1;PMS_P2;Temp;Humidity;BMP_temperature;BMP_pressure;BME280_temperature;BME280_humidity;BME280_pressure;Samples;Min_cycle;Max_cycle;Signal;HPM_P1;HPM_P2
2022/03/12 00:00:26;;;;;;;5.35;4.05;;;;;;;15.16;32.01;97529.47;5030794;28;20056;-24
2022/03/12 00:02:52;;;;;;;7.32;4.28;;;;;;;15.15;31.87;97536.13;5030486;28;20079;-25
2022/03/12 00:05:18;;;;;;;6.40;4.00;;;;;;;15.09;31.91;97537.84;5030712;28;20041;-25
2022/03/12 00:07:44;;;;;;;5.72;3.92;;;;;;;15.09;31.94;97532.38;5030705;28;20036;-24
2022/03/12 00:10:13;;;;;;;5.72;3.90;;;;;;;15.12;32.01;97539.72;5030792;28;20021;-25
2022/03/12 00:12:40;;;;;;;5.53;4.07;;;;;;;15.04;31.65;97541.88;5031953;28;20497;-24
2022/03/12 00:15:09;;;;;;;6.88;4.25;;;;;;;15.15;31.83;97540.81;5034121;28;20033;-25
2022/03/12 00:17:45;;;;;;;5.93;3.90;;;;;;;15.02;31.83;97540.75;5034198;28;20370;-25
2022/03/12 00:20:18;;;;;;;5.82;3.70;;;;;;;15.02;31.67;97540.75;5032929;28;20041;-25
2022/03/12 00:22:50;;;;;;;6.03;4.28;;;;;;;15.07;31.48;97545.72;5032968;28;20033;-25
2022/03/12 00:25:21;;;;;;;6.60;3.97;;;;;;;15.00;31.65;97545.88;5034013;28;20136;-25
2022/03/12 00:27:50;;;;;;;5.20;3.45;;;;;;;15.08;31.21;97547.25;5032478;28;20549;-25
2022/03/12 00:30:18;;;;;;;6.82;4.15;;;;;;;15.02;31.50;97551.69;5032393;28;20037;-25
2022/03/12 00:32:48;;;;;;;7.38;4.10;;;;;;;15.04;31.57;97543.84;5033814;28;20021;-25
2022/03/12 00:35:17;;;;;;;7.65;3.90;;;;;;;15.03;31.24;97545.81;5032606;28;20036;-25
2022/03/12 00:37:43;;;;;;;5.15;3.88;;;;;;;15.05;31.31;97542.66;5032308;28;20025;-25
2022/03/12 00:40:10;;;;;;;5.72;3.90;;;;;;;14.98;31.44;97535.38;5033768;28;20104;-24
2022/03/12 00:42:35;;;;;;;6.00;4.10;;;;;;;15.01;31.16;97539.22;5033929;28;20033;-25
2022/03/12 00:45:01;;;;;;;5.68;4.28;;;;;;;15.00;31.18;97537.69;5033305;28;20026;-25
2022/03/12 00:47:27;;;;;;;6.25;4.00;;;;;;;15.00;31.13;97543.16;5033651;28;20045;-24
2022/03/12 00:49:53;;;;;;;5.90;4.07;;;;;;;14.98;31.24;97540.06;5033519;28;20537;-25
2022/03/12 00:52:19;;;;;;;6.05;4.15;;;;;;;14.94;31.07;97539.41;5033668;28;20065;-25
2022/03/12 00:54:45;;;;;;;6.78;4.40;;;;;;;14.94;31.01;97542.16;5032234;28;20053;-25
2022/03/12 00:57:12;;;;;;;7.75;4.22;;;;;;;14.92;31.20;97539.06;5033428;28;20017;-25
2022/03/12 00:59:41;;;;;;;6.03;4.38;;;;;;;14.98;31.06;97545.53;5033376;28;20025;-25
2022/03/12 01:02:11;;;;;;;6.63;4.75;;;;;;;15.00;30.90;97543.91;5033104;28;20029;-25
2022/03/12 01:04:37;;;;;;;6.75;4.45;;;;;;;14.95;31.06;97543.69;5033483;28;20128;-25
2022/03/12 01:07:03;;;;;;;5.72;3.80;;;;;;;14.80;31.09;97547.94;5028465;28;20383;-25
2022/03/12 01:09:29;;;;;;;6.95;4.82;;;;;;;14.91;30.94;97545.72;5033268;28;20116;-25
2022/03/12 01:11:55;;;;;;;9.38;5.32;;;;;;;14.96;30.67;97537.03;5029284;28;20113;-25
2022/03/12 01:14:21;;;;;;;7.20;4.50;;;;;;;14.90;30.64;97539.50;5033872;28;20030;-25
2022/03/12 01:16:46;;;;;;;5.95;4.43;;;;;;;14.88;30.65;97532.91;5035400;28;20501;-25
2022/03/12 01:19:12;;;;;;;6.00;4.13;;;;;;;14.87;30.66;97528.66;5035195;28;20477;-25
2022/03/12 01:21:38;;;;;;;7.13;4.90;;;;;;;14.90;30.65;97533.25;5034882;28;20029;-25
2022/03/12 01:24:04;;;;;;;5.68;4.18;;;;;;;14.95;30.58;97528.06;5034867;28;20468;-24
2022/03/12 01:26:29;;;;;;;6.78;4.25;;;;;;;14.92;30.72;97526.19;5034889;28;20025;-24
2022/03/12 01:28:55;;;;;;;6.03;4.07;;;;;;;14.88;30.61;97522.00;5034817;28;20048;-25
2022/03/12 01:31:22;;;;;;;6.07;4.10;;;;;;;14.80;30.42;97512.44;5035195;28;20049;-24
2022/03/12 01:33:48;;;;;;;6.75;4.45;;;;;;;14.86;30.67;97519.69;5035039;28;20048;-24
2022/03/12 01:36:14;;;;;;;6.20;4.60;;;;;;;14.82;30.52;97513.56;5034743;28;20029;-25
2022/03/12 01:38:51;;;;;;;6.10;4.60;;;;;;;14.82;30.39;97515.53;5034748;28;20104;-24
2022/03/12 01:41:28;;;;;;;7.00;4.28;;;;;;;14.78;30.63;97509.38;5034593;28;20021;-25
2022/03/12 01:43:55;;;;;;;7.43;4.40;;;;;;;14.82;30.39;97515.53;5034640;28;20032;-25
2022/03/12 01:46:32;;;;;;;8.57;5.38;;;;;;;14.73;30.52;97514.13;5034804;28;20032;-24
2022/03/12 01:48:59;;;;;;;7.32;4.50;;;;;;;14.80;30.54;97513.22;5034515;28;20032;-25
2022/03/12 01:51:29;;;;;;;8.07;4.93;;;;;;;14.78;30.43;97515.59;5034454;28;20033;-24
2022/03/12 01:53:55;;;;;;;6.45;4.38;;;;;;;14.81;30.89;97514.75;5034335;28;20032;-25
2022/03/12 01:56:27;;;;;;;7.90;4.78;;;;;;;14.70;30.43;97515.00;5033083;28;20033;-24
2022/03/12 01:58:53;;;;;;;7.70;4.77;;;;;;;14.74;30.60;97504.75;5034432;28;20022;-24
2022/03/12 02:01:20;;;;;;;5.70;4.35;;;;;;;14.72;30.32;97506.38;5032917;28;20695;-25
2022/03/12 02:03:47;;;;;;;6.90;4.80;;;;;;;14.80;30.28;97506.97;5032853;28;20025;-26
2022/03/12 02:06:19;;;;;;;6.50;4.38;;;;;;;14.76;30.12;97506.28;5034317;28;20021;-25
2022/03/12 02:08:48;;;;;;;7.57;4.20;;;;;;;14.71;30.12;97500.13;5034104;28;20593;-25
2022/03/12 02:11:16;;;;;;;7.55;4.97;;;;;;;14.65;30.32;97499.13;5034170;28;20053;-24
2022/03/12 02:13:42;;;;;;;7.38;4.60;;;;;;;14.73;29.90;97497.75;5034066;28;20033;-25
2022/03/12 02:16:09;;;;;;;6.97;4.57;;;;;;;14.73;30.33;97505.19;5033933;28;20108;-25
2022/03/12 02:18:39;;;;;;;5.97;4.15;;;;;;;14.70;30.23;97495.91;5033997;28;20108;-25
2022/03/12 02:21:05;;;;;;;7.32;4.15;;;;;;;14.67;30.10;97499.47;5032474;28;20025;-25
2022/03/12 02:23:48;;;;;;;6.88;4.20;;;;;;;14.74;29.80;97498.53;5033828;28;20060;-25
2022/03/12 02:26:14;;;;;;;6.05;4.72;;;;;;;14.70;30.23;97504.09;5033932;28;20066;-25
2022/03/12 02:28:40;;;;;;;6.80;4.38;;;;;;;14.69;30.04;97501.78;5034022;28;20386;-24
2022/03/12 02:31:05;;;;;;;6.43;4.35;;;;;;;14.59;29.87;97500.81;5033594;28;20522;-25
2022/03/12 02:33:31;;;;;;;5.82;4.57;;;;;;;14.63;29.99;97496.06;5033799;28;20029;-25
2022/03/12 02:35:58;;;;;;;6.50;4.47;;;;;;;14.67;29.56;97493.25;5033284;28;20027;-25
2022/03/12 02:38:27;;;;;;;6.18;3.97;;;;;;;14.63;29.71;97493.31;5033840;28;20036;-24
2022/03/12 02:40:54;;;;;;;6.57;4.45;;;;;;;14.61;30.06;97484.78;5033520;28;20028;-25
2022/03/12 02:43:26;;;;;;;7.53;4.65;;;;;;;14.58;29.93;97491.13;5034026;28;20026;-25
2022/03/12 02:45:53;;;;;;;6.20;4.38;;;;;;;14.62;29.90;97491.78;5033789;28;20500;-25
2022/03/12 02:48:18;;;;;;;6.40;4.20;;;;;;;14.62;29.56;97496.47;5033750;28;20030;-24
2022/03/12 02:50:45;;;;;;;7.18;4.55;;;;;;;14.58;29.72;97496.59;5033903;28;20433;-25
2022/03/12 02:53:11;;;;;;;8.13;4.60;;;;;;;14.62;29.65;97491.78;5033617;28;20025;-25
2022/03/12 02:55:41;;;;;;;7.43;4.47;;;;;;;14.60;29.36;97487.94;5033632;28;20086;-24
2022/03/12 02:58:09;;;;;;;6.78;4.53;;;;;;;14.64;29.90;97492.13;5032108;28;20117;-25
2022/03/12 03:00:36;;;;;;;6.32;4.40;;;;;;;14.49;29.41;97482.75;5033469;28;20075;-25
2022/03/12 03:03:02;;;;;;;6.03;4.10;;;;;;;14.55;29.48;97491.19;5033484;28;20036;-25
2022/03/12 03:05:44;;;;;;;7.05;4.40;;;;;;;14.59;29.70;97486.41;5032996;28;20046;-25
2022/03/12 03:08:12;;;;;;;8.35;4.38;;;;;;;14.60;29.67;97488.72;5033343;28;20033;-24
2022/03/12 03:10:40;;;;;;;8.32;4.90;;;;;;;14.62;29.33;97489.06;5032188;28;20013;-24
2022/03/12 03:13:18;;;;;;;6.38;4.10;;;;;;;14.47;29.49;97489.81;5015051;28;20037;-25
2022/03/12 03:15:51;;;;;;;6.65;4.75;;;;;;;14.46;29.47;97480.88;5024700;28;20033;-25
2022/03/12 03:18:22;;;;;;;7.55;4.68;;;;;;;14.57;29.50;97484.13;5033407;28;20116;-25
2022/03/12 03:20:51;;;;;;;7.80;4.53;;;;;;;14.49;29.39;97493.66;5033494;28;20375;-24
2022/03/12 03:23:17;;;;;;;6.22;4.10;;;;;;;14.50;29.44;97495.19;5033445;28;20025;-25
2022/03/12 03:25:43;;;;;;;8.93;5.13;;;;;;;14.53;29.54;97494.34;5033379;28;20055;-25
2022/03/12 03:28:09;;;;;;;9.50;4.75;;;;;;;14.50;29.21;97495.19;5033112;28;20405;-24
2022/03/12 03:30:37;;;;;;;7.65;4.75;;;;;;;14.55;29.37;97486.50;5033122;28;20107;-25
2022/03/12 03:33:07;;;;;;;6.78;4.53;;;;;;;14.48;29.18;97492.13;5033010;28;20037;-25
2022/03/12 03:35:33;;;;;;;6.90;4.60;;;;;;;14.50;29.55;97497.94;5033481;28;20075;-24
2022/03/12 03:37:59;;;;;;;6.28;4.18;;;;;;;14.60;29.09;97490.69;5033227;28;20025;-25
2022/03/12 03:40:26;;;;;;;6.20;4.57;;;;;;;14.48;29.15;97483.16;5032861;28;20022;-24
2022/03/12 03:42:52;;;;;;;7.68;4.53;;;;;;;14.45;29.20;97482.09;5032896;28;20033;-25
2022/03/12 03:45:22;;;;;;;6.20;4.32;;;;;;;14.49;29.17;97482.75;5033133;28;20542;-25
2022/03/12 03:47:49;;;;;;;7.55;4.50;;;;;;;14.46;29.21;97472.69;5034633;28;20075;-24
2022/03/12 03:50:16;;;;;;;7.40;4.68;;;;;;;14.44;29.16;97480.53;5037031;28;20029;-25
2022/03/12 03:52:41;;;;;;;6.45;3.97;;;;;;;14.41;29.15;97478.66;5036662;28;20083;-25
2022/03/12 03:55:07;;;;;;;7.55;4.70;;;;;;;14.47;28.93;97474.22;5035509;28;20440;-24
2022/03/12 03:57:33;;;;;;;6.82;3.92;;;;;;;14.48;28.79;97481.22;5036624;28;20104;-24
2022/03/12 03:59:58;;;;;;;7.35;4.40;;;;;;;14.43;28.96;97484.47;5036514;28;20029;-25
2022/03/12 04:02:24;;;;;;;5.47;4.13;;;;;;;14.38;28.93;97484.94;5036838;28;20112;-25
2022/03/12 04:04:50;;;;;;;7.47;5.10;;;;;;;14.29;29.02;97479.31;5036353;28;20064;-24
2022/03/12 04:07:16;;;;;;;9.15;4.90;;;;;;;14.34;29.00;97478.81;5035166;28;20466;-25
2022/03/12 04:09:41;;;;;;;8.57;4.40;;;;;;;14.44;28.62;97486.00;5036313;28;20034;-24
2022/03/12 04:12:07;;;;;;;8.07;4.88;;;;;;;14.40;28.99;97481.81;5036341;28;20024;-25
2022/03/12 04:14:33;;;;;;;7.55;4.60;;;;;;;14.33;29.10;97490.91;5036210;28;20024;-25
2022/03/12 04:16:58;;;;;;;7.07;4.47;;;;;;;14.36;28.64;97481.84;5036429;28;20024;-25
2022/03/12 04:19:29;;;;;;;6.97;4.57;;;;;;;14.33;29.01;97496.38;5036459;28;20044;-25
2022/03/12 04:21:57;;;;;;;8.00;4.53;;;;;;;14.36;29.10;97495.50;5036043;28;20463;-24
2022/03/12 04:24:25;;;;;;;6.22;4.18;;;;;;;14.36;28.90;97492.78;5036147;28;20025;-25
2022/03/12 04:26:51;;;;;;;6.72;4.30;;;;;;;14.34;28.63;97500.63;5035190;28;20029;-25
2022/03/12 04:29:19;;;;;;;5.45;4.03;;;;;;;14.41;28.58;97497.00;5035915;28;20026;-24
2022/03/12 04:31:47;;;;;;;7.72;4.60;;;;;;;14.41;28.62;97500.50;5036033;28;20014;-24
2022/03/12 04:34:14;;;;;;;6.95;4.60;;;;;;;14.41;28.65;97502.44;5035919;28;20034;-25
2022/03/12 04:36:42;;;;;;;10.60;5.25;;;;;;;14.24;28.65;97493.44;5035803;28;20079;-25
2022/03/12 04:39:10;;;;;;;6.00;3.85;;;;;;;14.32;28.76;97495.59;5035895;28;20095;-25
2022/03/12 04:41:36;;;;;;;8.80;4.97;;;;;;;14.33;28.41;97499.09;5035641;28;20037;-24
2022/03/12 04:44:05;;;;;;;7.93;4.22;;;;;;;14.31;28.43;97493.28;5035863;28;20072;-25
2022/03/12 04:46:32;;;;;;;7.40;5.05;;;;;;;14.28;28.26;97485.94;5035871;28;20405;-24
2022/03/12 04:48:57;;;;;;;6.53;4.53;;;;;;;14.40;28.58;97488.03;5035789;28;20017;-25
2022/03/12 04:51:23;;;;;;;9.90;4.35;;;;;;;14.39;28.37;97483.75;5035534;28;20355;-25
2022/03/12 04:53:49;;;;;;;6.57;4.53;;;;;;;14.28;28.57;97483.22;5035903;28;20052;-25
2022/03/12 04:56:14;;;;;;;7.15;4.32;;;;;;;14.35;28.36;97477.59;5034492;28;20041;-24
2022/03/12 04:58:40;;;;;;;7.95;4.13;;;;;;;14.33;28.22;97485.47;5034997;28;20044;-24
2022/03/12 05:01:07;;;;;;;6.40;4.35;;;;;;;14.34;27.93;97481.53;5035286;28;20018;-25
2022/03/12 05:03:33;;;;;;;6.53;4.00;;;;;;;14.30;28.04;97483.56;5035274;28;20393;-25
2022/03/12 05:06:00;;;;;;;8.00;4.85;;;;;;;14.26;27.79;97477.41;5035352;28;20053;-25
2022/03/12 05:08:33;;;;;;;7.75;4.50;;;;;;;14.20;28.39;97481.84;5035619;28;20097;-25
2022/03/12 05:10:58;;;;;;;6.38;4.45;;;;;;;14.30;28.38;97478.88;5035253;28;20021;-25
2022/03/12 05:13:24;;;;;;;6.07;4.22;;;;;;;14.28;28.44;97486.72;5035312;28;20056;-25
2022/03/12 05:16:05;;;;;;;6.60;4.38;;;;;;;14.26;28.39;97483.66;5035515;28;20032;-24
2022/03/12 05:18:32;;;;;;;8.32;4.45;;;;;;;14.33;28.15;97480.00;5035265;28;20022;-24
2022/03/12 05:20:58;;;;;;;5.72;3.95;;;;;;;14.14;28.35;97483.53;5035023;28;20470;-25
2022/03/12 05:23:24;;;;;;;7.95;4.57;;;;;;;14.23;28.00;97486.44;5035290;28;20035;-25
2022/03/12 05:25:51;;;;;;;6.00;3.67;;;;;;;14.31;28.07;97494.06;5035199;28;20025;-25
2022/03/12 05:28:17;;;;;;;6.35;4.50;;;;;;;14.28;28.13;97494.13;5034841;28;20120;-25
2022/03/12 05:30:45;;;;;;;8.10;4.65;;;;;;;14.27;27.81;97492.59;5034964;28;20053;-24
2022/03/12 05:33:11;;;;;;;6.88;4.10;;;;;;;14.25;27.92;97494.97;5034807;28;20508;-25
2022/03/12 05:35:40;;;;;;;5.75;4.22;;;;;;;14.30;27.94;97492.53;5034859;28;20068;-25
2022/03/12 05:38:06;;;;;;;6.03;4.07;;;;;;;14.34;27.86;97493.19;5034766;28;20029;-25
2022/03/12 05:40:36;;;;;;;7.32;4.28;;;;;;;14.31;28.15;97493.28;5034664;28;20098;-25
2022/03/12 05:43:02;;;;;;;6.03;4.35;;;;;;;14.28;27.90;97505.81;5034724;28;20029;-24
2022/03/12 05:45:27;;;;;;;6.25;4.55;;;;;;;14.22;27.81;97499.31;5034595;28;20025;-25
2022/03/12 05:47:53;;;;;;;5.95;4.40;;;;;;;14.16;28.20;97511.94;5034859;28;20108;-25
2022/03/12 05:50:19;;;;;;;7.07;4.53;;;;;;;14.23;28.07;97505.53;5034603;28;20025;-25
2022/03/12 05:52:49;;;;;;;8.23;4.53;;;;;;;14.25;27.72;97506.66;5034481;28;20099;-25
2022/03/12 05:55:17;;;;;;;6.18;3.85;;;;;;;14.25;28.00;97505.88;5033375;28;20036;-24
2022/03/12 05:57:43;;;;;;;6.13;4.25;;;;;;;14.34;28.00;97508.81;5034507;28;20108;-25
2022/03/12 06:00:12;;;;;;;7.80;3.85;;;;;;;14.29;28.10;97514.78;5034156;28;20060;-24
2022/03/12 06:02:51;;;;;;;7.72;4.55;;;;;;;14.24;28.12;97510.56;5034186;28;20059;-25
2022/03/12 06:05:21;;;;;;;5.85;4.50;;;;;;;14.25;27.81;97516.81;5033964;28;20375;-25
2022/03/12 06:07:49;;;;;;;6.32;4.28;;;;;;;14.22;27.97;97509.47;5034161;28;20029;-25
2022/03/12 06:10:29;;;;;;;6.82;4.43;;;;;;;14.23;27.86;97513.72;5033716;28;20021;-25
2022/03/12 06:12:56;;;;;;;7.38;4.70;;;;;;;14.28;27.97;97516.72;5034296;28;20053;-25
2022/03/12 06:15:24;;;;;;;7.47;4.85;;;;;;;14.26;27.80;97519.13;5034230;28;20036;-24
2022/03/12 06:17:50;;;;;;;8.35;4.80;;;;;;;14.23;28.09;97524.63;5034151;28;20029;-25
2022/03/12 06:20:20;;;;;;;8.68;5.38;;;;;;;14.23;27.93;97516.47;5033755;28;20024;-24
2022/03/12 06:22:47;;;;;;;7.55;4.65;;;;;;;14.26;27.91;97521.06;5033935;28;20028;-25
2022/03/12 06:25:13;;;;;;;7.03;4.50;;;;;;;14.26;28.12;97529.25;5033878;28;20104;-25
2022/03/12 06:27:42;;;;;;;10.35;4.90;;;;;;;14.25;28.09;97530.44;5033753;28;20034;-24
2022/03/12 06:30:10;;;;;;;7.25;4.80;;;;;;;14.23;28.07;97527.38;5033850;28;20367;-25
2022/03/12 06:32:42;;;;;;;9.27;5.82;;;;;;;14.22;27.72;97544.94;5033897;28;20025;-24
2022/03/12 06:35:09;;;;;;;7.93;4.57;;;;;;;14.19;27.66;97532.16;5033795;28;20037;-25
2022/03/12 06:37:34;;;;;;;6.63;4.45;;;;;;;14.15;27.84;97537.69;5032467;28;20521;-25
2022/03/12 06:40:00;;;;;;;8.77;4.90;;;;;;;14.13;27.91;97542.00;5033755;28;20033;-25
2022/03/12 06:42:29;;;;;;;7.80;4.13;;;;;;;14.18;27.78;97538.81;5033440;28;20049;-25
2022/03/12 06:44:55;;;;;;;8.32;4.30;;;;;;;14.16;27.58;97536.50;5031891;28;20030;-25
2022/03/12 06:47:27;;;;;;;7.05;4.22;;;;;;;14.17;27.54;97531.81;5011997;28;20037;-25
2022/03/12 06:49:54;;;;;;;8.88;4.18;;;;;;;14.15;27.83;97536.91;5011911;28;20036;-25
2022/03/12 06:52:20;;;;;;;7.85;4.82;;;;;;;14.15;27.40;97539.63;5011924;28;20549;-25
2022/03/12 06:54:45;;;;;;;6.18;3.72;;;;;;;14.11;27.67;97538.94;5011699;28;20041;-25
2022/03/12 06:57:12;;;;;;;7.47;3.88;;;;;;;14.12;27.59;97543.97;5011060;28;20109;-25
2022/03/12 06:59:37;;;;;;;5.95;3.60;;;;;;;14.14;27.47;97536.13;5009109;28;20034;-24
2022/03/12 07:02:03;;;;;;;6.60;4.03;;;;;;;14.08;27.63;97556.94;5011844;28;20037;-25
2022/03/12 07:04:29;;;;;;;6.55;3.80;;;;;;;14.16;27.25;97552.09;5011542;28;20124;-25
2022/03/12 07:06:54;;;;;;;6.97;3.85;;;;;;;14.12;27.37;97565.78;5011781;28;20478;-25
2022/03/12 07:09:20;;;;;;;8.27;4.18;;;;;;;14.07;27.68;97555.41;5011288;28;20594;-25
2022/03/12 07:11:45;;;;;;;6.90;4.10;;;;;;;14.04;27.66;97572.59;5011804;28;20501;-25
2022/03/12 07:14:11;;;;;;;5.40;3.47;;;;;;;14.11;27.73;97566.97;5011719;28;20156;-25
2022/03/12 07:16:37;;;;;;;10.52;4.57;;;;;;;14.10;27.88;97573.63;5011602;28;20029;-25
2022/03/12 07:19:03;;;;;;;7.20;3.83;;;;;;;14.09;27.48;97579.53;5011661;28;20045;-24
2022/03/12 07:21:29;;;;;;;7.03;4.00;;;;;;;14.06;27.40;97575.69;5013618;28;20037;-25
2022/03/12 07:23:55;;;;;;;6.13;3.70;;;;;;;14.08;27.12;97578.00;5035381;28;20029;-25
2022/03/12 07:26:21;;;;;;;6.00;3.38;;;;;;;14.10;27.07;97581.81;5035362;28;20389;-25
2022/03/12 07:28:48;;;;;;;6.63;4.10;;;;;;;14.12;27.61;97584.13;5035367;28;20492;-25
2022/03/12 07:31:15;;;;;;;7.30;3.85;;;;;;;14.08;27.26;97581.50;5035116;28;20025;-25
2022/03/12 07:33:41;;;;;;;6.53;3.80;;;;;;;14.04;27.38;97586.25;5034677;28;20025;-25
2022/03/12 07:36:07;;;;;;;5.55;3.50;;;;;;;14.03;27.41;97585.47;5035176;28;20545;-25
2022/03/12 07:38:33;;;;;;;5.07;3.15;;;;;;;14.06;27.38;97583.88;5034985;28;20057;-25
2022/03/12 07:40:59;;;;;;;6.57;3.60;;;;;;;14.14;27.15;97596.16;5034816;28;20111;-24
2022/03/12 07:43:25;;;;;;;6.65;3.95;;;;;;;14.10;27.52;97598.19;5034905;28;20084;-24
2022/03/12 07:45:51;;;;;;;5.93;3.70;;;;;;;14.09;27.47;97590.44;5034719;28;20036;-25
2022/03/12 07:48:17;;;;;;;6.25;3.50;;;;;;;14.07;27.47;97604.50;5034901;28;20116;-25
2022/03/12 07:50:44;;;;;;;6.03;3.88;;;;;;;14.06;27.04;97594.00;5034814;28;20377;-25
2022/03/12 07:53:11;;;;;;;9.52;4.38;;;;;;;14.14;27.25;97598.88;5034697;28;20029;-25
2022/03/12 07:55:37;;;;;;;6.93;4.15;;;;;;;14.09;27.32;97590.44;5034870;28;20025;-25
2022/03/12 07:58:03;;;;;;;6.53;3.55;;;;;;;13.95;27.45;97595.00;5034426;28;20028;-25
2022/03/12 08:00:30;;;;;;;6.45;3.47;;;;;;;14.11;27.43;97601.69;5031640;28;20033;-25
2022/03/12 08:02:56;;;;;;;8.30;4.00;;;;;;;14.08;27.12;97610.72;5034542;28;20060;-25
2022/03/12 08:05:24;;;;;;;6.75;4.10;;;;;;;14.00;27.51;97605.41;5034346;28;20088;-25
2022/03/12 08:07:57;;;;;;;6.28;3.70;;;;;;;14.05;27.19;97612.31;5034476;28;20053;-25
2022/03/12 08:10:22;;;;;;;7.00;3.80;;;;;;;14.11;27.47;97609.88;5034300;28;20036;-25
2022/03/12 08:12:49;;;;;;;5.65;3.78;;;;;;;14.05;27.37;97612.31;5034313;28;20104;-25
2022/03/12 08:15:16;;;;;;;5.75;3.63;;;;;;;14.09;27.39;97609.53;5034225;28;20079;-25
2022/03/12 08:17:43;;;;;;;5.18;3.70;;;;;;;14.02;27.55;97622.13;5034324;28;20494;-25
2022/03/12 08:20:10;;;;;;;6.63;3.78;;;;;;;13.95;27.38;97605.91;5036123;28;20398;-25
2022/03/12 08:22:41;;;;;;;8.63;4.55;;;;;;;13.11;27.88;97611.66;5036390;28;20371;-26
2022/03/12 08:25:09;;;;;;;8.68;4.45;;;;;;;13.35;27.64;97619.88;5034875;28;20377;-27
2022/03/12 08:27:35;;;;;;;6.15;4.57;;;;;;;13.56;27.01;97614.81;5036380;28;20390;-26
2022/03/12 08:30:02;;;;;;;6.32;4.30;;;;;;;13.68;26.77;97616.16;5036348;28;20029;-27
2022/03/12 08:32:28;;;;;;;7.97;4.32;;;;;;;13.82;26.90;97618.63;5035996;28;20013;-26
2022/03/12 08:34:57;;;;;;;7.53;4.38;;;;;;;13.84;27.30;97618.97;5035393;28;20021;-26
2022/03/12 08:37:23;;;;;;;6.90;4.47;;;;;;;13.86;27.24;97616.56;5035742;28;20425;-26
2022/03/12 08:39:49;;;;;;;9.25;4.70;;;;;;;13.82;27.32;97610.44;5035699;28;20029;-27
2022/03/12 08:42:14;;;;;;;7.00;3.95;;;;;;;13.93;27.25;97610.22;5036069;28;20025;-26
2022/03/12 08:44:40;;;;;;;7.40;4.30;;;;;;;13.92;26.84;97609.47;5035747;28;20032;-26
2022/03/12 08:47:06;;;;;;;6.85;3.80;;;;;;;13.91;26.92;97612.59;5035709;28;20025;-26
2022/03/12 08:49:32;;;;;;;6.00;3.70;;;;;;;13.94;27.03;97609.81;5035730;28;20029;-27
2022/03/12 08:51:58;;;;;;;8.77;4.18;;;;;;;13.91;27.50;97618.81;5035562;28;20043;-26
2022/03/12 08:54:24;;;;;;;6.53;3.90;;;;;;;13.92;27.37;97614.91;5035477;28;20025;-27
2022/03/12 08:56:49;;;;;;;5.18;3.92;;;;;;;13.92;27.07;97609.47;5035670;28;20032;-27
2022/03/12 08:59:15;;;;;;;5.40;3.70;;;;;;;13.90;27.59;97614.56;5035658;28;20025;-26
2022/03/12 09:01:43;;;;;;;9.75;4.00;;;;;;;13.80;27.27;97612.81;5035556;28;20029;-26
2022/03/12 09:04:09;;;;;;;7.60;3.80;;;;;;;13.86;27.25;97611.13;5035264;28;20067;-26
2022/03/12 09:06:35;;;;;;;7.10;3.90;;;;;;;13.89;27.50;97612.25;5035587;28;20025;-26
2022/03/12 09:09:00;;;;;;;5.57;4.00;;;;;;;13.95;27.24;97602.41;5035633;28;20455;-26
2022/03/12 09:11:26;;;;;;;5.93;3.47;;;;;;;13.89;27.35;97599.38;5035263;28;20591;-27
2022/03/12 09:13:53;;;;;;;6.82;3.95;;;;;;;13.95;27.81;97597.72;5035436;28;20041;-26
2022/03/12 09:16:19;;;;;;;6.80;3.90;;;;;;;13.94;27.62;97601.63;5035034;28;20032;-26
2022/03/12 09:18:44;;;;;;;8.15;4.30;;;;;;;13.79;27.49;97599.59;5035230;28;20025;-26
2022/03/12 09:21:11;;;;;;;8.20;4.18;;;;;;;13.86;27.85;97600.22;5038882;28;20029;-27
2022/03/12 09:23:36;;;;;;;7.75;3.65;;;;;;;13.96;27.38;97598.50;5048493;28;20039;-26
2022/03/12 09:26:03;;;;;;;7.65;4.35;;;;;;;13.96;27.88;97599.25;5035576;28;20025;-26
2022/03/12 09:28:29;;;;;;;7.32;4.00;;;;;;;13.97;27.64;97603.50;5034982;28;20022;-27
2022/03/12 09:30:55;;;;;;;6.32;3.78;;;;;;;13.83;27.84;97601.06;5034896;28;20108;-27
2022/03/12 09:33:22;;;;;;;8.75;4.00;;;;;;;13.95;28.03;97596.94;5048954;28;20440;-26
2022/03/12 09:35:49;;;;;;;6.70;4.00;;;;;;;14.06;27.81;97594.00;5053209;28;20028;-27
2022/03/12 09:38:15;;;;;;;6.85;4.13;;;;;;;13.92;27.81;97595.06;5053317;28;20049;-27
2022/03/12 09:40:42;;;;;;;7.40;4.18;;;;;;;13.92;27.96;97595.81;5047027;28;20064;-26
2022/03/12 09:43:08;;;;;;;6.70;4.13;;;;;;;13.81;27.74;97594.50;5054541;28;20017;-26
2022/03/12 09:45:34;;;;;;;6.75;4.05;;;;;;;13.81;27.87;97591.78;5054474;28;20055;-27
2022/03/12 09:48:00;;;;;;;9.05;4.63;;;;;;;13.74;28.05;97589.94;5054587;28;20024;-26
2022/03/12 09:50:25;;;;;;;8.60;4.60;;;;;;;13.63;28.21;97594.81;5049918;28;20025;-26
2022/03/12 09:52:51;;;;;;;6.68;3.92;;;;;;;13.70;28.22;97591.97;5054519;28;20020;-26
2022/03/12 09:55:19;;;;;;;10.48;5.20;;;;;;;13.68;27.87;97588.91;5054673;28;20370;-27
2022/03/12 09:57:46;;;;;;;7.13;3.92;;;;;;;13.85;28.15;97587.00;5054344;28;20025;-28
2022/03/12 10:00:13;;;;;;;6.35;4.03;;;;;;;13.86;27.97;97583.84;5054561;28;20052;-26
2022/03/12 10:02:39;;;;;;;6.90;4.22;;;;;;;13.88;28.12;97576.03;5052685;28;20029;-26
2022/03/12 10:05:05;;;;;;;7.03;4.00;;;;;;;13.94;28.03;97574.38;5048445;28;20043;-26
2022/03/12 10:07:31;;;;;;;6.72;4.35;;;;;;;13.83;27.48;97573.03;5027944;28;20024;-26
2022/03/12 10:09:57;;;;;;;8.15;4.15;;;;;;;13.47;27.88;97568.28;5052910;28;20465;-27
2022/03/12 10:12:23;;;;;;;7.70;4.28;;;;;;;13.42;28.53;97566.00;5040394;28;20095;-26
2022/03/12 10:14:49;;;;;;;7.25;5.20;;;;;;;13.61;28.03;97564.47;5033717;28;20033;-27
2022/03/12 10:17:17;;;;;;;7.32;4.25;;;;;;;13.57;28.74;97569.25;5032819;28;20029;-26
2022/03/12 10:19:44;;;;;;;9.57;4.95;;;;;;;13.81;27.36;97576.19;5031973;28;20038;-26
2022/03/12 10:22:10;;;;;;;9.27;4.60;;;;;;;13.45;26.87;97564.41;5033925;28;20025;-26
2022/03/12 10:24:36;;;;;;;7.60;4.78;;;;;;;13.24;28.02;97571.00;5034123;28;20393;-26
2022/03/12 10:27:04;;;;;;;6.40;4.32;;;;;;;13.32;29.27;97564.25;5033872;28;20036;-26
2022/03/12 10:29:30;;;;;;;7.25;4.55;;;;;;;13.22;28.14;97563.25;5033691;28;20024;-26
2022/03/12 10:31:56;;;;;;;9.65;4.90;;;;;;;13.43;27.54;97564.06;5033725;28;20025;-26
2022/03/12 10:34:28;;;;;;;7.90;4.75;;;;;;;13.60;27.79;97560.22;5033856;28;20033;-26
2022/03/12 10:36:57;;;;;;;8.10;4.35;;;;;;;13.40;27.27;97559.44;5032488;28;20033;-26
2022/03/12 10:39:33;;;;;;;8.52;3.92;;;;;;;13.44;27.71;97549.25;5033531;28;20056;-26
2022/03/12 10:42:01;;;;;;;7.10;4.10;;;;;;;13.58;27.19;97554.44;5035606;28;20478;-26
2022/03/12 10:44:47;;;;;;;6.80;3.85;;;;;;;13.66;28.25;97550.38;5045815;28;20028;-26
2022/03/12 10:47:22;;;;;;;9.25;4.63;;;;;;;13.65;27.63;97551.56;5047775;28;20131;-26
2022/03/12 10:50:05;;;;;;;7.20;4.25;;;;;;;13.77;27.33;97558.34;5051649;28;20662;-27
2022/03/12 10:52:32;;;;;;;8.02;3.80;;;;;;;13.79;27.63;97556.75;5036521;28;20032;-26
2022/03/12 10:55:30;;;;;;;6.97;3.97;;;;;;;14.06;27.86;97558.53;5033820;28;20449;-27
2022/03/12 10:57:59;;;;;;;6.47;3.80;;;;;;;13.93;27.80;97556.47;5044855;28;20033;-26
2022/03/12 11:00:26;;;;;;;7.80;3.63;;;;;;;13.61;28.07;97545.41;5041352;28;20059;-26
2022/03/12 11:02:58;;;;;;;6.35;4.40;;;;;;;13.84;27.60;97553.53;5033153;28;20025;-26
2022/03/12 11:05:26;;;;;;;9.70;4.97;;;;;;;13.56;27.87;97543.94;5033271;28;20049;-26
2022/03/12 11:07:52;;;;;;;6.10;3.80;;;;;;;13.89;27.81;97536.66;5033306;28;20420;-26
2022/03/12 11:10:28;;;;;;;9.25;4.47;;;;;;;13.91;27.08;97537.03;5030971;28;20040;-26
2022/03/12 11:12:55;;;;;;;6.07;3.42;;;;;;;13.90;27.94;97540.16;5031811;28;20071;-26
2022/03/12 11:15:23;;;;;;;6.53;4.57;;;;;;;13.74;27.64;97537.38;5053545;28;20045;-27
2022/03/12 11:17:51;;;;;;;6.50;4.28;;;;;;;13.68;28.12;97531.66;5036270;28;20060;-26
2022/03/12 11:20:28;;;;;;;7.70;4.18;;;;;;;13.98;27.33;97525.19;5049869;28;20083;-26
2022/03/12 11:23:23;;;;;;;5.30;3.30;;;;;;;14.11;28.15;97522.56;5033398;28;20562;-26
2022/03/12 11:25:59;;;;;;;6.90;4.13;;;;;;;14.03;27.52;97513.78;5033202;28;20022;-26
2022/03/12 11:28:27;;;;;;;6.15;3.95;;;;;;;14.00;27.45;97512.66;5033468;28;20033;-26
2022/03/12 11:30:53;;;;;;;5.40;3.47;;;;;;;14.19;28.03;97507.59;5032217;28;20022;-26
2022/03/12 11:33:20;;;;;;;5.75;3.75;;;;;;;14.20;27.95;97507.19;5033054;28;20097;-26
2022/03/12 11:35:46;;;;;;;6.93;4.30;;;;;;;14.04;28.32;97501.69;5033024;28;20415;-26